sensor_id;sensor_type;location;lat;lon;timestamp;P1;durP1;ratioP1;P2;durP2;ratioP2
72464;SDS011;60471;52.150;4.508;2023-12-28T00:01:42;27.45;;;4.22;;
72464;SDS011;60471;52.150;4.508;2023-12-28T00:04:08;24.75;;;4.03;;
72464;SDS011;60471;52.150;4.508;2023-12-28T00:06:35;21.05;;;3.97;;
72464;SDS011;60471;52.150;4.508;2023-12-28T00:09:01;18.05;;;4.10;;
72464;SDS011;60471;52.150;4.508;2023-12-28T00:11:27;22.40;;;3.55;;
72464;SDS011;60471;52.150;4.508;2023-12-28T00:13:53;16.52;;;2.78;;
72464;SDS011;60471;52.150;4.508;2023-12-28T00:16:20;14.70;;;2.58;;
72464;SDS011;60471;52.150;4.508;2023-12-28T00:18:46;19.98;;;3.47;;
72464;SDS011;60471;52.150;4.508;2023-12-28T00:21:12;21.42;;;3.30;;
72464;SDS011;60471;52.150;4.508;2023-12-28T00:23:38;12.88;;;3.60;;
72464;SDS011;60471;52.150;4.508;2023-12-28T00:26:04;16.23;;;3.70;;
72464;SDS011;60471;52.150;4.508;2023-12-28T00:28:31;17.23;;;3.42;;
72464;SDS011;60471;52.150;4.508;2023-12-28T00:30:57;14.88;;;3.35;;
72464;SDS011;60471;52.150;4.508;2023-12-28T00:33:23;14.10;;;2.92;;
72464;SDS011;60471;52.150;4.508;2023-12-28T00:35:49;16.85;;;3.38;;
72464;SDS011;60471;52.150;4.508;2023-12-28T00:38:15;15.55;;;3.17;;
72464;SDS011;60471;52.150;4.508;2023-12-28T00:40:42;14.30;;;2.80;;
72464;SDS011;60471;52.150;4.508;2023-12-28T00:43:08;11.88;;;2.85;;
72464;SDS011;60471;52.150;4.508;2023-12-28T00:45:34;12.68;;;3.20;;
72464;SDS011;60471;52.150;4.508;2023-12-28T00:48:00;17.15;;;3.35;;
72464;SDS011;60471;52.150;4.508;2023-12-28T00:50:26;14.05;;;3.00;;
72464;SDS011;60471;52.150;4.508;2023-12-28T00:52:57;17.50;;;3.53;;
72464;SDS011;60471;52.150;4.508;2023-12-28T00:55:23;14.80;;;2.70;;
72464;SDS011;60471;52.150;4.508;2023-12-28T00:57:49;12.93;;;2.47;;
72464;SDS011;60471;52.150;4.508;2023-12-28T01:00:16;17.67;;;3.63;;
72464;SDS011;60471;52.150;4.508;2023-12-28T01:02:42;14.45;;;3.08;;
72464;SDS011;60471;52.150;4.508;2023-12-28T01:05:08;12.57;;;2.22;;
72464;SDS011;60471;52.150;4.508;2023-12-28T01:07:35;10.10;;;2.45;;
72464;SDS011;60471;52.150;4.508;2023-12-28T01:10:01;15.40;;;2.88;;
72464;SDS011;60471;52.150;4.508;2023-12-28T01:12:27;13.02;;;3.20;;
72464;SDS011;60471;52.150;4.508;2023-12-28T01:14:54;12.93;;;2.72;;
72464;SDS011;60471;52.150;4.508;2023-12-28T01:17:20;17.50;;;3.47;;
72464;SDS011;60471;52.150;4.508;2023-12-28T01:19:46;9.82;;;2.00;;
72464;SDS011;60471;52.150;4.508;2023-12-28T01:22:12;11.82;;;2.25;;
72464;SDS011;60471;52.150;4.508;2023-12-28T01:24:38;10.23;;;2.25;;
72464;SDS011;60471;52.150;4.508;2023-12-28T01:27:05;15.60;;;3.28;;
72464;SDS011;60471;52.150;4.508;2023-12-28T01:29:31;12.77;;;2.13;;
72464;SDS011;60471;52.150;4.508;2023-12-28T01:31:58;11.98;;;3.22;;
72464;SDS011;60471;52.150;4.508;2023-12-28T01:34:24;10.13;;;1.90;;
72464;SDS011;60471;52.150;4.508;2023-12-28T01:36:51;11.95;;;2.60;;
72464;SDS011;60471;52.150;4.508;2023-12-28T01:39:17;11.18;;;2.95;;
72464;SDS011;60471;52.150;4.508;2023-12-28T01:41:44;11.40;;;2.67;;
72464;SDS011;60471;52.150;4.508;2023-12-28T01:44:11;10.48;;;2.10;;
72464;SDS011;60471;52.150;4.508;2023-12-28T01:46:37;11.52;;;2.50;;
72464;SDS011;60471;52.150;4.508;2023-12-28T01:49:04;10.68;;;2.30;;
72464;SDS011;60471;52.150;4.508;2023-12-28T01:51:31;12.98;;;2.70;;
72464;SDS011;60471;52.150;4.508;2023-12-28T01:53:59;10.90;;;2.53;;
72464;SDS011;60471;52.150;4.508;2023-12-28T01:56:26;10.75;;;2.25;;
72464;SDS011;60471;52.150;4.508;2023-12-28T01:58:52;14.07;;;2.25;;
72464;SDS011;60471;52.150;4.508;2023-12-28T02:01:20;10.73;;;2.95;;
72464;SDS011;60471;52.150;4.508;2023-12-28T02:03:46;14.55;;;2.95;;
72464;SDS011;60471;52.150;4.508;2023-12-28T02:06:13;11.57;;;2.30;;
72464;SDS011;60471;52.150;4.508;2023-12-28T02:08:43;10.52;;;2.45;;
72464;SDS011;60471;52.150;4.508;2023-12-28T02:11:09;9.73;;;2.63;;
72464;SDS011;60471;52.150;4.508;2023-12-28T02:13:36;14.60;;;2.97;;
72464;SDS011;60471;52.150;4.508;2023-12-28T02:19:04;16.95;;;2.75;;
72464;SDS011;60471;52.150;4.508;2023-12-28T02:22:08;8.88;;;2.47;;
72464;SDS011;60471;52.150;4.508;2023-12-28T02:27:35;9.90;;;1.92;;
72464;SDS011;60471;52.150;4.508;2023-12-28T02:30:05;10.95;;;2.92;;
72464;SDS011;60471;52.150;4.508;2023-12-28T02:32:42;12.48;;;2.70;;
72464;SDS011;60471;52.150;4.508;2023-12-28T02:38:00;19.23;;;2.85;;
72464;SDS011;60471;52.150;4.508;2023-12-28T02:40:35;13.38;;;2.00;;
72464;SDS011;60471;52.150;4.508;2023-12-28T02:43:09;14.65;;;2.28;;
72464;SDS011;60471;52.150;4.508;2023-12-28T02:45:37;14.40;;;2.58;;
72464;SDS011;60471;52.150;4.508;2023-12-28T02:48:04;17.77;;;3.22;;
72464;SDS011;60471;52.150;4.508;2023-12-28T02:50:32;15.63;;;2.35;;
72464;SDS011;60471;52.150;4.508;2023-12-28T02:52:59;12.02;;;2.80;;
72464;SDS011;60471;52.150;4.508;2023-12-28T02:55:26;13.82;;;2.45;;
72464;SDS011;60471;52.150;4.508;2023-12-28T02:57:53;14.18;;;2.38;;
72464;SDS011;60471;52.150;4.508;2023-12-28T03:00:24;19.05;;;2.38;;
72464;SDS011;60471;52.150;4.508;2023-12-28T03:02:51;14.85;;;2.72;;
72464;SDS011;60471;52.150;4.508;2023-12-28T03:05:19;12.77;;;2.47;;
72464;SDS011;60471;52.150;4.508;2023-12-28T03:07:45;16.38;;;2.78;;
72464;SDS011;60471;52.150;4.508;2023-12-28T03:10:12;15.82;;;2.88;;
72464;SDS011;60471;52.150;4.508;2023-12-28T03:12:38;15.60;;;3.08;;
72464;SDS011;60471;52.150;4.508;2023-12-28T03:15:05;18.73;;;2.58;;
72464;SDS011;60471;52.150;4.508;2023-12-28T03:17:31;27.95;;;3.13;;
72464;SDS011;60471;52.150;4.508;2023-12-28T03:19:58;23.98;;;3.80;;
72464;SDS011;60471;52.150;4.508;2023-12-28T03:22:25;7.97;;;2.63;;
72464;SDS011;60471;52.150;4.508;2023-12-28T03:24:51;11.80;;;2.42;;
72464;SDS011;60471;52.150;4.508;2023-12-28T03:27:17;11.07;;;2.10;;
72464;SDS011;60471;52.150;4.508;2023-12-28T03:29:44;19.05;;;2.83;;
72464;SDS011;60471;52.150;4.508;2023-12-28T03:32:10;12.77;;;2.38;;
72464;SDS011;60471;52.150;4.508;2023-12-28T03:34:36;17.95;;;2.47;;
72464;SDS011;60471;52.150;4.508;2023-12-28T03:37:03;14.57;;;2.22;;
72464;SDS011;60471;52.150;4.508;2023-12-28T03:39:29;14.68;;;3.03;;
72464;SDS011;60471;52.150;4.508;2023-12-28T03:41:56;18.00;;;2.63;;
72464;SDS011;60471;52.150;4.508;2023-12-28T03:44:22;12.35;;;2.00;;
72464;SDS011;60471;52.150;4.508;2023-12-28T03:46:48;19.65;;;3.15;;
72464;SDS011;60471;52.150;4.508;2023-12-28T03:49:19;16.70;;;2.83;;
72464;SDS011;60471;52.150;4.508;2023-12-28T03:51:47;15.55;;;2.78;;
72464;SDS011;60471;52.150;4.508;2023-12-28T03:54:16;14.30;;;2.35;;
72464;SDS011;60471;52.150;4.508;2023-12-28T03:56:43;16.13;;;2.50;;
72464;SDS011;60471;52.150;4.508;2023-12-28T03:59:11;19.00;;;2.67;;
72464;SDS011;60471;52.150;4.508;2023-12-28T04:01:37;16.38;;;2.35;;
72464;SDS011;60471;52.150;4.508;2023-12-28T04:04:03;19.75;;;2.83;;
72464;SDS011;60471;52.150;4.508;2023-12-28T04:06:30;16.10;;;2.53;;
72464;SDS011;60471;52.150;4.508;2023-12-28T04:08:56;11.60;;;2.28;;
72464;SDS011;60471;52.150;4.508;2023-12-28T04:11:23;16.80;;;2.47;;
72464;SDS011;60471;52.150;4.508;2023-12-28T04:13:49;16.33;;;2.55;;
72464;SDS011;60471;52.150;4.508;2023-12-28T04:16:16;19.75;;;4.60;;
72464;SDS011;60471;52.150;4.508;2023-12-28T04:18:42;19.13;;;3.25;;
72464;SDS011;60471;52.150;4.508;2023-12-28T04:21:09;15.07;;;2.60;;
72464;SDS011;60471;52.150;4.508;2023-12-28T04:23:37;22.92;;;2.72;;
72464;SDS011;60471;52.150;4.508;2023-12-28T04:26:05;12.07;;;2.55;;
72464;SDS011;60471;52.150;4.508;2023-12-28T04:28:31;17.55;;;3.58;;
72464;SDS011;60471;52.150;4.508;2023-12-28T04:31:03;15.07;;;3.28;;
72464;SDS011;60471;52.150;4.508;2023-12-28T04:33:31;16.90;;;2.75;;
72464;SDS011;60471;52.150;4.508;2023-12-28T04:36:01;18.45;;;3.13;;
72464;SDS011;60471;52.150;4.508;2023-12-28T04:38:30;17.58;;;2.63;;
72464;SDS011;60471;52.150;4.508;2023-12-28T04:40:57;18.67;;;2.97;;
72464;SDS011;60471;52.150;4.508;2023-12-28T04:43:25;24.27;;;3.35;;
72464;SDS011;60471;52.150;4.508;2023-12-28T04:45:51;14.07;;;2.78;;
72464;SDS011;60471;52.150;4.508;2023-12-28T04:48:18;20.75;;;2.35;;
72464;SDS011;60471;52.150;4.508;2023-12-28T04:50:49;14.70;;;2.67;;
72464;SDS011;60471;52.150;4.508;2023-12-28T04:53:16;15.82;;;2.97;;
72464;SDS011;60471;52.150;4.508;2023-12-28T04:55:42;20.23;;;2.50;;
72464;SDS011;60471;52.150;4.508;2023-12-28T04:58:10;24.17;;;4.10;;
72464;SDS011;60471;52.150;4.508;2023-12-28T05:00:37;19.35;;;3.13;;
72464;SDS011;60471;52.150;4.508;2023-12-28T05:03:04;18.25;;;4.00;;
72464;SDS011;60471;52.150;4.508;2023-12-28T05:05:30;24.67;;;3.47;;
72464;SDS011;60471;52.150;4.508;2023-12-28T05:07:56;19.75;;;3.10;;
72464;SDS011;60471;52.150;4.508;2023-12-28T05:10:23;16.58;;;3.00;;
72464;SDS011;60471;52.150;4.508;2023-12-28T05:12:49;16.33;;;2.70;;
72464;SDS011;60471;52.150;4.508;2023-12-28T05:15:15;16.02;;;3.03;;
72464;SDS011;60471;52.150;4.508;2023-12-28T05:17:42;24.17;;;4.10;;
72464;SDS011;60471;52.150;4.508;2023-12-28T05:20:09;21.20;;;3.28;;
72464;SDS011;60471;52.150;4.508;2023-12-28T05:22:36;24.30;;;4.30;;
72464;SDS011;60471;52.150;4.508;2023-12-28T05:25:02;16.80;;;2.90;;
72464;SDS011;60471;52.150;4.508;2023-12-28T05:27:28;17.08;;;3.35;;
72464;SDS011;60471;52.150;4.508;2023-12-28T05:29:55;25.67;;;2.92;;
72464;SDS011;60471;52.150;4.508;2023-12-28T05:32:21;22.83;;;4.10;;
72464;SDS011;60471;52.150;4.508;2023-12-28T05:34:48;19.58;;;3.00;;
72464;SDS011;60471;52.150;4.508;2023-12-28T05:37:15;28.33;;;3.45;;
72464;SDS011;60471;52.150;4.508;2023-12-28T05:39:42;23.35;;;3.85;;
72464;SDS011;60471;52.150;4.508;2023-12-28T05:42:08;21.92;;;3.95;;
72464;SDS011;60471;52.150;4.508;2023-12-28T05:44:34;28.30;;;3.45;;
72464;SDS011;60471;52.150;4.508;2023-12-28T05:47:00;16.35;;;3.10;;
72464;SDS011;60471;52.150;4.508;2023-12-28T05:49:27;17.85;;;3.13;;
72464;SDS011;60471;52.150;4.508;2023-12-28T05:51:54;24.13;;;3.70;;
72464;SDS011;60471;52.150;4.508;2023-12-28T05:54:20;21.30;;;3.70;;
72464;SDS011;60471;52.150;4.508;2023-12-28T05:56:46;23.25;;;4.05;;
72464;SDS011;60471;52.150;4.508;2023-12-28T05:59:13;17.67;;;2.92;;
72464;SDS011;60471;52.150;4.508;2023-12-28T06:01:42;28.02;;;4.25;;
72464;SDS011;60471;52.150;4.508;2023-12-28T06:04:09;20.23;;;3.90;;
72464;SDS011;60471;52.150;4.508;2023-12-28T06:06:36;26.20;;;3.42;;
72464;SDS011;60471;52.150;4.508;2023-12-28T06:09:03;24.58;;;3.97;;
72464;SDS011;60471;52.150;4.508;2023-12-28T06:11:29;18.48;;;3.65;;
72464;SDS011;60471;52.150;4.508;2023-12-28T06:13:55;16.35;;;2.83;;
72464;SDS011;60471;52.150;4.508;2023-12-28T06:16:22;42.80;;;4.78;;
72464;SDS011;60471;52.150;4.508;2023-12-28T06:18:48;28.38;;;4.47;;
72464;SDS011;60471;52.150;4.508;2023-12-28T06:21:15;23.23;;;4.55;;
72464;SDS011;60471;52.150;4.508;2023-12-28T06:23:41;23.10;;;3.83;;
72464;SDS011;60471;52.150;4.508;2023-12-28T06:26:07;25.35;;;4.15;;
72464;SDS011;60471;52.150;4.508;2023-12-28T06:28:33;31.67;;;4.55;;
72464;SDS011;60471;52.150;4.508;2023-12-28T06:30:59;26.38;;;5.15;;
72464;SDS011;60471;52.150;4.508;2023-12-28T06:33:27;26.88;;;4.45;;
72464;SDS011;60471;52.150;4.508;2023-12-28T06:35:56;26.13;;;3.95;;
72464;SDS011;60471;52.150;4.508;2023-12-28T06:38:25;17.38;;;3.30;;
72464;SDS011;60471;52.150;4.508;2023-12-28T06:40:51;22.75;;;4.15;;
72464;SDS011;60471;52.150;4.508;2023-12-28T06:43:18;25.67;;;5.50;;
72464;SDS011;60471;52.150;4.508;2023-12-28T06:45:44;21.27;;;4.03;;
72464;SDS011;60471;52.150;4.508;2023-12-28T06:48:10;21.67;;;4.00;;
72464;SDS011;60471;52.150;4.508;2023-12-28T06:50:36;23.63;;;3.65;;
72464;SDS011;60471;52.150;4.508;2023-12-28T06:53:03;36.72;;;6.43;;
72464;SDS011;60471;52.150;4.508;2023-12-28T06:55:29;33.58;;;4.00;;
72464;SDS011;60471;52.150;4.508;2023-12-28T06:57:55;24.40;;;4.57;;
72464;SDS011;60471;52.150;4.508;2023-12-28T07:00:21;28.02;;;4.53;;
72464;SDS011;60471;52.150;4.508;2023-12-28T07:02:48;25.02;;;4.15;;
72464;SDS011;60471;52.150;4.508;2023-12-28T07:05:14;28.40;;;3.85;;
72464;SDS011;60471;52.150;4.508;2023-12-28T07:07:40;28.40;;;4.13;;
72464;SDS011;60471;52.150;4.508;2023-12-28T07:10:06;33.83;;;5.32;;
72464;SDS011;60471;52.150;4.508;2023-12-28T07:12:33;25.08;;;4.68;;
72464;SDS011;60471;52.150;4.508;2023-12-28T07:15:00;31.08;;;5.68;;
72464;SDS011;60471;52.150;4.508;2023-12-28T07:17:26;30.52;;;4.13;;
72464;SDS011;60471;52.150;4.508;2023-12-28T07:19:52;21.88;;;4.30;;
72464;SDS011;60471;52.150;4.508;2023-12-28T07:22:18;21.77;;;4.07;;
72464;SDS011;60471;52.150;4.508;2023-12-28T07:24:44;25.27;;;4.40;;
72464;SDS011;60471;52.150;4.508;2023-12-28T07:27:11;30.52;;;4.40;;
72464;SDS011;60471;52.150;4.508;2023-12-28T07:29:37;27.50;;;3.97;;
72464;SDS011;60471;52.150;4.508;2023-12-28T07:32:03;26.55;;;4.70;;
72464;SDS011;60471;52.150;4.508;2023-12-28T07:34:30;28.15;;;4.55;;
